createdAt,value
2023-02-02T00:01:54.904Z,11.35
2023-02-02T00:04:22.357Z,11.35
2023-02-02T00:06:48.996Z,11.35
2023-02-02T00:09:17.614Z,11.33
2023-02-02T00:11:44.439Z,11.30
2023-02-02T00:14:11.100Z,11.26
2023-02-02T00:16:37.847Z,11.23
2023-02-02T00:19:06.626Z,11.18
2023-02-02T00:21:33.306Z,11.10
2023-02-02T00:24:00.000Z,11.04
2023-02-02T00:26:26.651Z,11.00
2023-02-02T00:28:53.419Z,10.98
2023-02-02T00:31:20.375Z,10.97
2023-02-02T00:33:47.262Z,10.96
2023-02-02T00:36:14.256Z,10.96
2023-02-02T00:38:40.815Z,11.00
2023-02-02T00:41:07.573Z,11.03
2023-02-02T00:43:34.349Z,11.04
2023-02-02T00:46:00.927Z,11.04
2023-02-02T00:48:27.528Z,11.06
2023-02-02T00:50:54.604Z,11.04
2023-02-02T00:53:21.289Z,11.06
2023-02-02T00:55:47.925Z,11.06
2023-02-02T00:58:14.673Z,11.05
2023-02-02T01:00:41.232Z,11.06
2023-02-02T01:03:07.793Z,11.07
2023-02-02T01:05:34.516Z,11.08
2023-02-02T01:08:01.501Z,11.08
2023-02-02T01:10:28.388Z,11.09
2023-02-02T01:12:55.009Z,11.09
2023-02-02T01:15:22.209Z,11.09
2023-02-02T01:17:48.823Z,11.08
2023-02-02T01:20:16.784Z,11.08
2023-02-02T01:22:43.420Z,11.07
2023-02-02T01:25:10.068Z,11.04
2023-02-02T01:27:36.801Z,11.02
2023-02-02T01:30:03.627Z,10.99
2023-02-02T01:32:30.280Z,10.97
2023-02-02T01:34:56.956Z,10.97
2023-02-02T01:37:23.500Z,10.95
2023-02-02T01:39:50.076Z,10.92
2023-02-02T01:42:20.573Z,10.90
2023-02-02T01:45:05.739Z,10.87
2023-02-02T01:47:34.033Z,10.85
2023-02-02T01:50:00.654Z,10.80
2023-02-02T01:52:27.640Z,10.78
2023-02-02T01:54:55.499Z,10.74
2023-02-02T01:57:26.586Z,10.70
2023-02-02T01:59:53.592Z,10.65
2023-02-02T02:02:20.429Z,10.60
2023-02-02T02:04:47.487Z,10.52
2023-02-02T02:07:14.067Z,10.50
2023-02-02T02:09:40.787Z,10.45
2023-02-02T02:12:13.519Z,10.42
2023-02-02T02:14:59.040Z,10.44
2023-02-02T02:17:31.809Z,10.49
2023-02-02T02:20:36.111Z,10.47
2023-02-02T02:23:27.231Z,10.48
2023-02-02T02:26:21.655Z,10.47
2023-02-02T02:28:52.008Z,10.45
2023-02-02T02:31:34.235Z,10.47
2023-02-02T02:34:00.853Z,10.49
2023-02-02T02:36:32.160Z,10.49
2023-02-02T02:39:19.317Z,10.45
2023-02-02T02:41:48.505Z,10.42
2023-02-02T02:44:15.638Z,10.42
2023-02-02T02:46:42.429Z,10.41
2023-02-02T02:49:09.724Z,10.37
2023-02-02T02:51:39.288Z,10.33
2023-02-02T02:54:06.010Z,10.28
2023-02-02T02:56:33.814Z,10.25
2023-02-02T02:59:39.405Z,10.29
2023-02-02T03:02:26.591Z,10.26
2023-02-02T03:04:55.753Z,10.24
2023-02-02T03:07:23.736Z,10.25
2023-02-02T03:09:50.281Z,10.24
2023-02-02T03:12:17.279Z,10.21
2023-02-02T03:14:43.868Z,10.18
2023-02-02T03:17:10.504Z,10.13
2023-02-02T03:19:37.197Z,10.08
2023-02-02T03:22:03.759Z,10.09
2023-02-02T03:24:30.480Z,10.09
2023-02-02T03:26:57.145Z,10.09
2023-02-02T03:29:23.817Z,10.05
2023-02-02T03:31:50.372Z,9.98
2023-02-02T03:34:16.941Z,9.98
2023-02-02T03:36:43.638Z,9.99
2023-02-02T03:39:10.191Z,10.00
2023-02-02T03:41:36.739Z,9.99
2023-02-02T03:44:03.403Z,9.99
2023-02-02T03:46:30.159Z,10.00
2023-02-02T03:48:56.737Z,9.99
2023-02-02T03:51:23.462Z,10.01
2023-02-02T03:53:50.097Z,10.02
2023-02-02T03:56:16.967Z,10.04
2023-02-02T03:58:43.752Z,10.06
2023-02-02T04:01:12.024Z,10.06
2023-02-02T04:03:38.620Z,10.02
2023-02-02T04:06:05.363Z,10.02
2023-02-02T04:08:32.007Z,10.02
2023-02-02T04:10:59.743Z,9.99
2023-02-02T04:13:26.532Z,9.98
2023-02-02T04:16:02.270Z,10.01
2023-02-02T04:18:29.091Z,10.04
2023-02-02T04:20:56.536Z,10.07
2023-02-02T04:23:23.176Z,10.08
2023-02-02T04:25:50.435Z,10.03
2023-02-02T04:28:17.204Z,10.01
2023-02-02T04:30:43.811Z,10.01
2023-02-02T04:33:10.609Z,10.02
2023-02-02T04:35:37.241Z,10.02
2023-02-02T04:38:03.828Z,10.03
2023-02-02T04:40:30.597Z,10.04
2023-02-02T04:43:00.179Z,10.01
2023-02-02T04:45:27.064Z,9.98
2023-02-02T04:47:54.188Z,9.96
2023-02-02T04:50:20.863Z,9.95
2023-02-02T04:52:47.548Z,9.97
2023-02-02T04:55:14.242Z,9.93
2023-02-02T04:57:40.858Z,9.91
2023-02-02T05:00:07.875Z,9.92
2023-02-02T05:02:38.383Z,9.91
2023-02-02T05:05:05.389Z,9.92
2023-02-02T05:07:32.275Z,9.92
2023-02-02T05:09:58.905Z,9.92
2023-02-02T05:12:25.469Z,9.93
2023-02-02T05:14:52.023Z,9.89
2023-02-02T05:17:18.762Z,9.87
2023-02-02T05:19:45.433Z,9.83
2023-02-02T05:22:12.098Z,9.79
2023-02-02T05:24:38.820Z,9.79
2023-02-02T05:27:05.646Z,9.80
2023-02-02T05:29:32.229Z,9.79
2023-02-02T05:31:59.079Z,9.77
2023-02-02T05:34:26.577Z,9.78
2023-02-02T05:36:53.282Z,9.79
2023-02-02T05:39:20.076Z,9.77
2023-02-02T05:41:46.627Z,9.76
2023-02-02T05:44:13.593Z,9.77
2023-02-02T05:46:40.494Z,9.78
2023-02-02T05:49:07.076Z,9.81
2023-02-02T05:51:34.605Z,9.80
2023-02-02T05:54:01.278Z,9.80
2023-02-02T05:56:27.818Z,9.80
2023-02-02T05:58:54.384Z,9.79
2023-02-02T06:01:21.851Z,9.78
2023-02-02T06:03:48.542Z,9.75
2023-02-02T06:06:15.199Z,9.75
2023-02-02T06:08:41.941Z,9.78
2023-02-02T06:11:14.936Z,9.77
2023-02-02T06:13:41.587Z,9.78
2023-02-02T06:16:08.368Z,9.73
2023-02-02T06:18:35.235Z,9.72
2023-02-02T06:21:02.171Z,9.72
2023-02-02T06:23:28.907Z,9.71
2023-02-02T06:25:55.554Z,9.70
2023-02-02T06:28:22.163Z,9.69
2023-02-02T06:30:48.989Z,9.65
2023-02-02T06:33:15.649Z,9.61
2023-02-02T06:35:42.218Z,9.60
2023-02-02T06:38:08.923Z,9.61
2023-02-02T06:40:35.600Z,9.61
2023-02-02T06:43:02.518Z,9.62
2023-02-02T06:45:29.567Z,9.62
2023-02-02T06:47:58.747Z,9.63
2023-02-02T06:50:25.327Z,9.61
2023-02-02T06:52:52.016Z,9.59
2023-02-02T06:55:18.654Z,9.58
2023-02-02T06:57:45.610Z,9.54
2023-02-02T07:00:12.705Z,9.50
2023-02-02T07:02:39.437Z,9.49
2023-02-02T07:05:06.236Z,9.48
2023-02-02T07:07:33.581Z,9.51
2023-02-02T07:10:00.159Z,9.53
2023-02-02T07:12:27.284Z,9.55
2023-02-02T07:14:54.266Z,9.57
2023-02-02T07:17:20.889Z,9.57
2023-02-02T07:19:47.524Z,9.57
2023-02-02T07:22:15.880Z,9.56
2023-02-02T07:24:43.022Z,9.55
2023-02-02T07:27:09.607Z,9.56
2023-02-02T07:29:36.281Z,9.55
2023-02-02T07:32:02.838Z,9.52
2023-02-02T07:34:29.486Z,9.48
2023-02-02T07:36:56.228Z,9.46
2023-02-02T07:39:22.795Z,9.47
2023-02-02T07:41:49.413Z,9.44
2023-02-02T07:44:16.318Z,9.44
2023-02-02T07:46:46.863Z,9.44
2023-02-02T07:49:14.561Z,9.48
2023-02-02T07:51:46.372Z,9.50
2023-02-02T07:54:14.252Z,9.49
2023-02-02T07:56:40.838Z,9.48
2023-02-02T07:59:07.511Z,9.46
2023-02-02T08:01:34.214Z,9.45
2023-02-02T08:04:00.866Z,9.46
2023-02-02T08:06:37.679Z,9.48
2023-02-02T08:09:05.251Z,9.56
2023-02-02T08:11:31.977Z,9.63
2023-02-02T08:13:59.668Z,9.75
2023-02-02T08:16:26.672Z,9.89
2023-02-02T08:18:53.332Z,10.01
2023-02-02T08:21:20.107Z,10.11
2023-02-02T08:23:46.901Z,10.24
2023-02-02T08:26:14.537Z,10.37
2023-02-02T08:28:41.630Z,10.48
2023-02-02T08:31:12.196Z,10.57
2023-02-02T08:33:39.754Z,10.73
2023-02-02T08:36:09.696Z,10.95
2023-02-02T08:38:36.285Z,11.12
2023-02-02T08:41:06.596Z,11.32
2023-02-02T08:43:33.376Z,11.49
2023-02-02T08:46:05.247Z,11.61
2023-02-02T08:48:32.351Z,11.74
2023-02-02T08:50:59.251Z,11.88
2023-02-02T08:53:26.138Z,12.06
2023-02-02T08:56:04.189Z,12.23
2023-02-02T08:58:30.902Z,12.35
2023-02-02T09:01:24.049Z,12.49
2023-02-02T09:03:54.598Z,12.69
2023-02-02T09:06:21.290Z,12.86
2023-02-02T09:08:48.357Z,12.98
2023-02-02T09:11:17.212Z,13.06
2023-02-02T09:13:45.908Z,13.18
2023-02-02T09:16:13.250Z,13.30
2023-02-02T09:18:40.190Z,13.43
2023-02-02T09:21:07.392Z,13.55
2023-02-02T09:23:34.591Z,13.67
2023-02-02T09:26:14.253Z,13.83
2023-02-02T09:28:43.145Z,13.95
2023-02-02T09:31:09.849Z,14.06
2023-02-02T09:33:36.611Z,14.15
2023-02-02T09:36:05.210Z,14.22
2023-02-02T09:38:31.826Z,14.33
2023-02-02T09:40:58.570Z,14.49
2023-02-02T09:43:29.317Z,14.66
2023-02-02T09:46:02.546Z,14.77
2023-02-02T09:48:29.127Z,14.98
2023-02-02T09:51:03.697Z,15.11
2023-02-02T09:53:30.334Z,15.40
2023-02-02T09:55:57.784Z,15.64
2023-02-02T09:58:39.677Z,15.91
2023-02-02T10:01:07.833Z,16.14
2023-02-02T10:03:38.893Z,16.32
2023-02-02T10:06:15.033Z,16.53
2023-02-02T10:08:43.012Z,16.64
2023-02-02T10:11:32.805Z,16.71
2023-02-02T10:14:01.590Z,16.75
2023-02-02T10:16:28.195Z,16.67
2023-02-02T10:19:14.033Z,16.75
2023-02-02T10:21:43.720Z,16.66
2023-02-02T10:24:16.317Z,16.72
2023-02-02T10:26:47.659Z,16.84
2023-02-02T10:29:17.654Z,16.94
2023-02-02T10:31:47.420Z,17.16
2023-02-02T10:34:15.665Z,17.14
2023-02-02T10:36:45.463Z,17.16
2023-02-02T10:39:18.259Z,17.41
2023-02-02T10:41:44.880Z,17.55
2023-02-02T10:44:17.781Z,17.66
2023-02-02T10:46:45.875Z,17.88
2023-02-02T10:49:12.540Z,18.17
2023-02-02T10:51:40.798Z,18.34
2023-02-02T10:54:22.192Z,18.54
2023-02-02T10:56:52.291Z,18.78
2023-02-02T10:59:22.336Z,18.76
2023-02-02T11:01:49.113Z,18.75
2023-02-02T11:04:41.130Z,18.84
2023-02-02T11:07:07.704Z,19.21
2023-02-02T11:09:39.338Z,19.49
2023-02-02T11:12:12.400Z,19.52
2023-02-02T11:14:45.666Z,19.44
2023-02-02T11:17:20.188Z,19.30
2023-02-02T11:19:46.933Z,19.23
2023-02-02T11:22:25.920Z,19.22
2023-02-02T11:24:52.708Z,19.24
2023-02-02T11:27:23.026Z,19.25
2023-02-02T11:29:50.797Z,19.26
2023-02-02T11:32:35.632Z,19.17
2023-02-02T11:35:02.365Z,19.22
2023-02-02T11:37:29.076Z,19.28
2023-02-02T11:39:55.809Z,19.38
2023-02-02T11:42:23.133Z,19.44
2023-02-02T11:44:59.311Z,19.46
2023-02-02T11:47:30.575Z,19.45
2023-02-02T11:49:57.823Z,19.68
2023-02-02T11:52:26.602Z,19.74
2023-02-02T11:54:55.054Z,19.85
2023-02-02T11:57:22.333Z,19.95
2023-02-02T11:59:49.868Z,20.21
2023-02-02T12:02:22.781Z,20.31
2023-02-02T12:04:50.404Z,20.37
2023-02-02T12:07:30.072Z,20.49
2023-02-02T12:10:01.117Z,20.59
2023-02-02T12:12:31.467Z,20.68
2023-02-02T12:14:58.013Z,20.78
2023-02-02T12:17:44.886Z,20.84
2023-02-02T12:20:14.925Z,20.90
2023-02-02T12:22:42.358Z,20.97
2023-02-02T12:25:09.568Z,21.03
2023-02-02T12:27:39.704Z,21.22
2023-02-02T12:30:09.782Z,21.29
2023-02-02T12:32:42.362Z,21.64
2023-02-02T12:35:21.788Z,22.03
2023-02-02T12:38:07.172Z,22.32
2023-02-02T12:40:57.119Z,22.41
2023-02-02T12:43:42.606Z,22.58
2023-02-02T12:46:18.796Z,22.55
2023-02-02T12:48:45.509Z,22.46
2023-02-02T12:51:33.873Z,22.41
2023-02-02T12:54:35.173Z,22.39
2023-02-02T12:57:13.305Z,22.41
2023-02-02T12:59:55.185Z,22.48
2023-02-02T13:02:30.942Z,22.48
2023-02-02T13:04:57.834Z,22.47
2023-02-02T13:07:48.073Z,22.44
2023-02-02T13:10:23.908Z,22.51
2023-02-02T13:12:52.735Z,22.68
2023-02-02T13:15:24.171Z,22.87
2023-02-02T13:17:54.591Z,22.96
2023-02-02T13:20:21.842Z,23.15
2023-02-02T13:22:49.942Z,23.64
2023-02-02T13:25:21.463Z,24.20
2023-02-02T13:27:49.819Z,24.78
2023-02-02T13:30:20.994Z,24.87
2023-02-02T13:32:47.661Z,24.84
2023-02-02T13:35:25.557Z,24.83
2023-02-02T13:37:52.473Z,24.19
2023-02-02T13:40:19.122Z,23.26
2023-02-02T13:42:49.881Z,22.30
2023-02-02T13:45:16.497Z,21.44
2023-02-02T13:47:44.765Z,20.75
2023-02-02T13:50:13.754Z,20.10
2023-02-02T13:52:40.402Z,19.54
2023-02-02T13:55:16.795Z,19.07
2023-02-02T13:58:04.318Z,18.57
2023-02-02T14:00:34.028Z,18.17
2023-02-02T14:03:04.147Z,17.85
2023-02-02T14:05:30.770Z,17.61
2023-02-02T14:08:16.376Z,17.41
2023-02-02T14:10:43.280Z,17.23
2023-02-02T14:13:33.093Z,17.11
2023-02-02T14:16:00.605Z,16.95
2023-02-02T14:18:45.980Z,16.84
2023-02-02T14:21:12.613Z,16.73
2023-02-02T14:23:55.748Z,16.65
2023-02-02T14:26:40.845Z,16.57
2023-02-02T14:29:29.590Z,16.51
2023-02-02T14:31:56.802Z,16.43
2023-02-02T14:34:35.711Z,16.38
2023-02-02T14:37:21.096Z,16.33
2023-02-02T14:39:50.485Z,16.30
2023-02-02T14:42:54.023Z,16.28
2023-02-02T14:45:25.771Z,16.24
2023-02-02T14:47:53.416Z,16.21
2023-02-02T14:50:38.357Z,16.17
2023-02-02T14:53:23.635Z,16.14
2023-02-02T14:55:56.008Z,16.10
2023-02-02T14:58:23.683Z,16.06
2023-02-02T15:00:57.486Z,16.04
2023-02-02T15:03:36.356Z,16.01
2023-02-02T15:06:08.976Z,15.98
2023-02-02T15:08:35.677Z,15.94
2023-02-02T15:11:23.712Z,15.92
2023-02-02T15:13:51.093Z,15.91
2023-02-02T15:16:22.995Z,15.90
2023-02-02T15:18:49.839Z,15.88
2023-02-02T15:21:17.509Z,15.85
2023-02-02T15:23:44.595Z,15.83
2023-02-02T15:26:27.666Z,15.82
2023-02-02T15:29:01.358Z,15.81
2023-02-02T15:31:28.220Z,15.80
2023-02-02T15:34:01.741Z,15.78
2023-02-02T15:36:32.687Z,15.77
2023-02-02T15:39:00.695Z,15.77
2023-02-02T15:41:47.709Z,15.77
2023-02-02T15:44:21.054Z,15.76
2023-02-02T15:46:47.827Z,15.75
2023-02-02T15:49:31.441Z,15.73
2023-02-02T15:52:00.514Z,15.72
2023-02-02T15:54:31.720Z,15.73
2023-02-02T15:56:59.685Z,15.71
2023-02-02T15:59:27.406Z,15.70
2023-02-02T16:01:57.997Z,15.69
2023-02-02T16:04:26.704Z,15.69
2023-02-02T16:06:53.742Z,15.68
2023-02-02T16:09:27.117Z,15.66
2023-02-02T16:11:53.927Z,15.64
2023-02-02T16:14:20.592Z,15.62
2023-02-02T16:16:49.655Z,15.60
2023-02-02T16:19:19.712Z,15.60
2023-02-02T16:21:51.556Z,15.58
2023-02-02T16:24:23.107Z,15.56
2023-02-02T16:26:50.882Z,15.56
2023-02-02T16:29:18.705Z,15.54
2023-02-02T16:31:46.183Z,15.52
2023-02-02T16:34:16.954Z,15.49
2023-02-02T16:36:43.663Z,15.46
2023-02-02T16:39:21.569Z,15.39
2023-02-02T16:41:49.394Z,15.35
2023-02-02T16:44:51.639Z,15.29
2023-02-02T16:47:27.229Z,15.23
2023-02-02T16:50:08.920Z,15.18
2023-02-02T16:52:54.558Z,15.12
2023-02-02T16:55:21.323Z,15.06
2023-02-02T16:57:48.290Z,15.01
2023-02-02T17:00:21.955Z,14.96
2023-02-02T17:02:49.486Z,14.90
2023-02-02T17:05:16.059Z,14.84
2023-02-02T17:07:46.221Z,14.80
2023-02-02T17:10:19.132Z,14.73
2023-02-02T17:12:45.744Z,14.68
2023-02-02T17:15:18.615Z,14.64
2023-02-02T17:17:47.845Z,14.58
2023-02-02T17:20:14.976Z,14.52
2023-02-02T17:22:42.291Z,14.49
2023-02-02T17:25:18.844Z,14.43
2023-02-02T17:27:45.546Z,14.38
2023-02-02T17:30:16.950Z,14.34
2023-02-02T17:32:43.501Z,14.29
2023-02-02T17:35:16.892Z,14.22
2023-02-02T17:37:43.464Z,14.19
2023-02-02T17:40:14.551Z,14.15
2023-02-02T17:42:41.696Z,14.08
2023-02-02T17:45:33.817Z,14.03
2023-02-02T17:48:00.967Z,13.96
2023-02-02T17:50:28.015Z,13.90
2023-02-02T17:52:54.776Z,13.85
2023-02-02T17:55:31.506Z,13.82
2023-02-02T17:57:58.141Z,13.78
2023-02-02T18:00:26.489Z,13.73
2023-02-02T18:02:56.872Z,13.68
2023-02-02T18:05:23.891Z,13.62
2023-02-02T18:07:50.742Z,13.57
2023-02-02T18:10:19.466Z,13.52
2023-02-02T18:12:46.101Z,13.48
2023-02-02T18:15:13.088Z,13.45
2023-02-02T18:17:39.925Z,13.42
2023-02-02T18:20:06.812Z,13.41
2023-02-02T18:22:33.419Z,13.37
2023-02-02T18:25:00.236Z,13.35
2023-02-02T18:27:28.717Z,13.33
2023-02-02T18:29:55.383Z,13.30
2023-02-02T18:32:22.178Z,13.26
2023-02-02T18:34:51.534Z,13.23
2023-02-02T18:37:18.218Z,13.19
2023-02-02T18:39:45.553Z,13.16
2023-02-02T18:42:12.184Z,13.15
2023-02-02T18:44:38.837Z,13.13
2023-02-02T18:47:05.750Z,13.10
2023-02-02T18:49:32.624Z,13.08
2023-02-02T18:51:59.191Z,13.05
2023-02-02T18:54:25.889Z,13.03
2023-02-02T18:56:52.666Z,12.99
2023-02-02T18:59:19.292Z,12.96
2023-02-02T19:01:45.923Z,12.92
2023-02-02T19:04:12.670Z,12.89
2023-02-02T19:06:58.246Z,12.87
2023-02-02T19:09:25.404Z,12.85
2023-02-02T19:11:55.015Z,12.82
2023-02-02T19:14:26.844Z,12.79
2023-02-02T19:16:54.732Z,12.76
2023-02-02T19:19:23.371Z,12.74
2023-02-02T19:21:51.200Z,12.73
2023-02-02T19:24:17.850Z,12.73
2023-02-02T19:26:46.239Z,12.71
2023-02-02T19:29:25.904Z,12.69
2023-02-02T19:31:53.470Z,12.68
2023-02-02T19:34:20.514Z,12.66
2023-02-02T19:36:49.507Z,12.64
2023-02-02T19:39:17.537Z,12.65
2023-02-02T19:41:44.088Z,12.64
2023-02-02T19:44:18.388Z,12.65
2023-02-02T19:46:46.588Z,12.65
2023-02-02T19:49:18.689Z,12.65
2023-02-02T19:51:45.640Z,12.66
2023-02-02T19:54:24.701Z,12.65
2023-02-02T19:56:56.035Z,12.66
2023-02-02T19:59:22.675Z,12.66
2023-02-02T20:01:51.004Z,12.67
2023-02-02T20:04:18.326Z,12.67
2023-02-02T20:06:58.070Z,12.70
2023-02-02T20:09:28.625Z,12.73
2023-02-02T20:11:56.761Z,12.74
2023-02-02T20:14:29.362Z,12.74
2023-02-02T20:17:02.359Z,12.73
2023-02-02T20:19:30.891Z,12.72
2023-02-02T20:21:57.455Z,12.73
2023-02-02T20:24:23.997Z,12.72
2023-02-02T20:26:51.450Z,12.72
2023-02-02T20:29:19.313Z,12.77
2023-02-02T20:31:46.142Z,12.80
2023-02-02T20:34:25.245Z,12.86
2023-02-02T20:36:58.190Z,12.90
2023-02-02T20:39:26.669Z,12.92
2023-02-02T20:41:54.923Z,12.95
2023-02-02T20:44:21.507Z,13.01
2023-02-02T20:46:48.261Z,13.04
2023-02-02T20:49:14.953Z,13.06
2023-02-02T20:51:41.599Z,13.03
2023-02-02T20:54:11.367Z,13.00
2023-02-02T20:56:38.093Z,12.96
2023-02-02T20:59:07.027Z,12.94
2023-02-02T21:01:33.987Z,12.90
2023-02-02T21:04:00.939Z,12.86
2023-02-02T21:06:28.815Z,12.82
2023-02-02T21:08:55.500Z,12.77
2023-02-02T21:11:22.227Z,12.74
2023-02-02T21:13:50.279Z,12.74
2023-02-02T21:16:17.104Z,12.72
2023-02-02T21:18:47.422Z,12.73
2023-02-02T21:21:16.150Z,12.73
2023-02-02T21:23:47.095Z,12.77
2023-02-02T21:26:14.150Z,12.82
2023-02-02T21:28:40.790Z,12.85
2023-02-02T21:31:08.273Z,12.86
2023-02-02T21:33:34.978Z,12.88
2023-02-02T21:36:03.321Z,12.90
2023-02-02T21:38:30.216Z,12.89
2023-02-02T21:40:58.294Z,12.88
2023-02-02T21:43:24.938Z,12.87
2023-02-02T21:45:51.944Z,12.86
2023-02-02T21:48:21.706Z,12.84
2023-02-02T21:50:48.502Z,12.81
2023-02-02T21:53:20.076Z,12.80
2023-02-02T21:55:56.375Z,12.79
2023-02-02T21:58:22.991Z,12.78
2023-02-02T22:00:49.799Z,12.76
2023-02-02T22:03:23.430Z,12.75
2023-02-02T22:05:49.966Z,12.73
2023-02-02T22:08:25.842Z,12.71
2023-02-02T22:10:52.528Z,12.70
2023-02-02T22:13:23.368Z,12.69
2023-02-02T22:15:51.209Z,12.67
2023-02-02T22:18:19.042Z,12.66
2023-02-02T22:20:47.602Z,12.65
2023-02-02T22:23:18.407Z,12.62
2023-02-02T22:25:45.153Z,12.59
2023-02-02T22:28:24.727Z,12.56
2023-02-02T22:30:51.743Z,12.52
2023-02-02T22:33:18.401Z,12.49
2023-02-02T22:35:45.231Z,12.45
2023-02-02T22:38:15.674Z,12.43
2023-02-02T22:40:42.235Z,12.40
2023-02-02T22:43:08.971Z,12.36
2023-02-02T22:45:35.676Z,12.33
2023-02-02T22:48:02.479Z,12.29
2023-02-02T22:50:30.537Z,12.26
2023-02-02T22:52:57.104Z,12.23
2023-02-02T22:55:23.724Z,12.16
2023-02-02T22:57:50.474Z,12.07
2023-02-02T23:00:21.251Z,11.99
2023-02-02T23:02:47.992Z,11.88
2023-02-02T23:05:15.365Z,11.77
2023-02-02T23:07:44.412Z,11.66
2023-02-02T23:10:15.480Z,11.54
2023-02-02T23:12:42.142Z,11.44
2023-02-02T23:15:09.058Z,11.36
2023-02-02T23:17:35.808Z,11.35
2023-02-02T23:20:05.418Z,11.35
2023-02-02T23:22:32.036Z,11.36
2023-02-02T23:24:59.003Z,11.36
2023-02-02T23:27:25.631Z,11.32
2023-02-02T23:29:52.228Z,11.34
2023-02-02T23:32:19.032Z,11.36
2023-02-02T23:34:45.689Z,11.38
2023-02-02T23:37:12.367Z,11.42
2023-02-02T23:39:39.041Z,11.43
2023-02-02T23:42:05.647Z,11.47
2023-02-02T23:44:32.190Z,11.51
2023-02-02T23:46:58.994Z,11.57
2023-02-02T23:49:25.666Z,11.60
2023-02-02T23:51:52.230Z,11.61
2023-02-02T23:54:18.928Z,11.61
2023-02-02T23:56:45.585Z,11.61
2023-02-02T23:59:12.511Z,11.62
